KLGF/LGF METAR and TAF weather

Enter ICAO airport designator
Station Type Date Time Source
KLGF METAR 2019/08/24 05:58 UTC NOAA

KLGF 240558Z AUTO 21013KT 10SM CLR 31/22 A2984 RMK AO2 SLP100 T03090217 10391 20309 52030 $


Station Type Date Time Source
KLGF Decoded METAR 2019/08/24 05:58 UTC NOAA

Station name not available
Aug 24, 2019 - 01:58 AM EDT / 2019.08.24 0558 UTC
Wind: from the SSW (210 degrees) at 15 MPH (13 KT):0
Visibility: 10 mile(s):0
Sky conditions: clear
Temperature: 87.6 F (30.9 C)
Heat index: 93.4 F (34.1 C):1
Dew Point: 71.1 F (21.7 C)
Relative Humidity: 58%
Pressure (altimeter): 29.84 in. Hg (1010 hPa)
Pressure tendency: 0.09 inches (3.0 hPa) higher than three hours ago
ob: KLGF 240558Z AUTO 21013KT 10SM CLR 31/22 A2984 RMK AO2 SLP100 T03090217 10391 20309 52030
cycle: 6

Station Type Date Time Source
KLGF TAF UTC NOAA

Error!

Example: see airport list